KFBG/FBG METAR and TAF weather

Enter ICAO airport designator
Station Type Date Time Source
KFBG METAR 2021/09/25 01:56 UTC NOAA

KFBG 250156Z AUTO 00000KT 10SM CLR 15/14 A3006 RMK AO2 SLP181 T01480137 $


Station Type Date Time Source
KFBG Decoded METAR 2021/09/25 01:56 UTC NOAA

Fort Bragg / Simmons Army Airfield, NC, United States (KFBG) 35-08N 078-56W 74M
Sep 24, 2021 - 09:56 PM EDT / 2021.09.25 0156 UTC
Wind: Calm:0
Visibility: 10 mile(s):0
Sky conditions: clear
Temperature: 58.6 F (14.8 C)
Dew Point: 56.7 F (13.7 C)
Relative Humidity: 93%
Pressure (altimeter): 30.06 in. Hg (1017 hPa)
ob: KFBG 250156Z AUTO 00000KT 10SM CLR 15/14 A3006 RMK AO2 SLP181 T01480137
cycle: 2

Station Type Date Time Source
KFBG TAF 2021/09/25 01:59 UTC NOAA

TAF KFBG 250100Z 2501/2607 VRB06KT 9999 SKC QNH2999INS TX27/2520Z TN12/2511Z

Example: see airport list